Wetter

Link zur aktuellen Windanzeige


Nordholz:

METAR:

2020/09/19 09:20 ETMN 190920Z 09010KT 9999 BKN260 15/07 Q1024 BLU+

TAF:

2020/09/18 11:38 TAF AMD ETMN 181334Z 1811/1820 08008KT 9999 NSW FEW330 BY ETGG= TAF EPDA 181400Z 1815/1824 27007KT CAVOK BECMG 1817/1820 VRB03KT PROB30 1821/1824 3000 MIFG BR

Wind EDXN:

19.09. 08:00z 080/11kt
19.09. 08:10z 080/09G12kt
19.09. 08:20z 080/11G14kt
19.09. 08:30z 090/11kt
19.09. 08:40z 080/12G15kt
19.09. 08:50z 070/13kt
19.09. 09:00z 080/13G16kt
19.09. 09:10z 080/13G17kt
19.09. 09:20z 090/12G17kt
19.09. 09:30z 080/12G17kt

Bremen:

METAR:

2020/09/19 09:20 EDDW 190920Z 09009KT CAVOK 16/06 Q1023 NOSIG

TAF:

2020/09/19 06:27 TAF EDDW 190500Z 1906/2006 08005KT CAVOK BECMG 1907/1909 10010KT BECMG 1916/1918 06005KT

Hamburg:

METAR:

2020/09/19 09:20 EDDH 190920Z 08006KT 050V110 CAVOK 17/08 Q1024 NOSIG

TAF:

2020/09/19 06:27 TAF EDDH 190500Z 1906/2012 07004KT CAVOK BECMG 1908/1910 07009KT BECMG 1917/1919 06004KT

Hannover:

METAR:

2020/09/19 09:20 EDDV 190920Z 08010KT 060V130 CAVOK 16/05 Q1022 NOSIG

TAF:

2020/09/19 06:27 TAF EDDV 190500Z 1906/2006 09005KT CAVOK BECMG 1906/1908 09010KT BECMG 1916/1918 07005KT

Wikipedia Artikel: METARTAF

Daten von Aviation Weather Center der NOAA, es kann keine Garantie für Aktualität und Richtigkeit der Daten übernommen werden.

Die Nutzung dieser Daten zur Flugplanung ist nicht zulässig!

Inoffizielle ATIS 🙂